Time;durP1;ratioP1;P1;durP2;ratioP2;P2;SDS_P1;SDS_P2;PMS_P1;PMS_P2;Temp;Humidity;BMP_temperature;BMP_pressure;BME280_temperature;BME280_humidity;BME280_pressure;Samples;Min_cycle;Max_cycle;Signal;HPM_P1;HPM_P2
2021/05/07 00:00:36;;;;;;;7.82;2.97;;;;;;;;;;5094584;28;20036;-62
2021/05/07 00:03:01;;;;;;;4.78;2.78;;;;;;;;;;5094492;28;20031;-63
2021/05/07 00:05:26;;;;;;;3.88;2.42;;;;;;;;;;5095791;28;20040;-62
2021/05/07 00:07:52;;;;;;;4.45;2.95;;;;;;;;;;5095606;28;20028;-62
2021/05/07 00:10:17;;;;;;;4.53;2.97;;;;;;;;;;5095280;28;20024;-62
2021/05/07 00:12:44;;;;;;;3.10;2.80;;;;;;;;;;5095495;28;20020;-63
2021/05/07 00:15:10;;;;;;;4.80;2.58;;;;;;;;;;5095623;28;20031;-63
2021/05/07 00:17:35;;;;;;;4.78;3.08;;;;;;;;;;5095454;28;20016;-63
2021/05/07 00:20:02;;;;;;;3.30;2.35;;;;;;;;;;5095652;28;20447;-63
2021/05/07 00:22:28;;;;;;;3.83;2.60;;;;;;;;;;5095251;28;20045;-62
2021/05/07 00:24:54;;;;;;;5.78;2.83;;;;;;;;;;5095201;28;20032;-62
2021/05/07 00:27:19;;;;;;;4.60;2.65;;;;;;;;;;5093928;28;20367;-61
2021/05/07 00:29:46;;;;;;;6.07;2.63;;;;;;;;;;5095238;28;20038;-61
2021/05/07 00:32:12;;;;;;;3.55;2.42;;;;;;;;;;5095451;28;20020;-63
2021/05/07 00:34:37;;;;;;;4.30;2.33;;;;;;;;;;5095129;28;20111;-63
2021/05/07 00:37:02;;;;;;;3.15;2.25;;;;;;;;;;5093754;28;20016;-63
2021/05/07 00:39:28;;;;;;;1.88;1.58;;;;;;;;;;5093725;28;20035;-63
2021/05/07 00:41:55;;;;;;;2.03;1.70;;;;;;;;;;5094695;28;20363;-63
2021/05/07 00:44:21;;;;;;;1.95;1.70;;;;;;;;;;5092862;28;20040;-63
2021/05/07 00:46:46;;;;;;;2.17;1.60;;;;;;;;;;5093451;28;20043;-63
2021/05/07 00:49:13;;;;;;;2.03;1.80;;;;;;;;;;5094588;28;20375;-62
2021/05/07 00:51:38;;;;;;;2.20;2.00;;;;;;;;;;5093563;28;20424;-62
2021/05/07 00:54:04;;;;;;;2.15;1.88;;;;;;;;;;5094596;28;20032;-62
2021/05/07 00:56:30;;;;;;;2.47;1.80;;;;;;;;;;5094519;28;20016;-62
2021/05/07 00:58:56;;;;;;;2.38;1.65;;;;;;;;;;5094440;28;20043;-62
2021/05/07 01:01:22;;;;;;;2.33;2.13;;;;;;;;;;5093009;28;20068;-62
2021/05/07 01:03:48;;;;;;;2.28;1.67;;;;;;;;;;5093168;28;20126;-62
2021/05/07 01:06:14;;;;;;;1.77;1.60;;;;;;;;;;5092959;28;20499;-62
2021/05/07 01:08:39;;;;;;;2.45;1.80;;;;;;;;;;5092970;28;20052;-62
2021/05/07 01:11:05;;;;;;;1.63;1.35;;;;;;;;;;5092534;28;20091;-61
2021/05/07 01:13:32;;;;;;;1.58;1.45;;;;;;;;;;5093108;28;20473;-61
2021/05/07 01:16:04;;;;;;;1.65;1.40;;;;;;;;;;5092849;28;20110;-62
2021/05/07 01:18:30;;;;;;;2.05;1.58;;;;;;;;;;5094208;28;20036;-63
2021/05/07 01:20:55;;;;;;;2.85;1.60;;;;;;;;;;5094183;28;20027;-62
2021/05/07 01:23:21;;;;;;;2.42;1.40;;;;;;;;;;5092912;28;20114;-62
2021/05/07 01:25:48;;;;;;;2.22;1.60;;;;;;;;;;5092762;28;20425;-62
2021/05/07 01:28:14;;;;;;;1.55;1.45;;;;;;;;;;5092962;28;20028;-62
2021/05/07 01:30:41;;;;;;;1.83;1.42;;;;;;;;;;5092467;28;20027;-61
2021/05/07 01:33:11;;;;;;;1.55;1.45;;;;;;;;;;5092534;28;20039;-62
2021/05/07 01:35:37;;;;;;;3.05;1.60;;;;;;;;;;5093740;28;20046;-61
2021/05/07 01:38:04;;;;;;;2.17;1.23;;;;;;;;;;5092411;28;20032;-61
2021/05/07 01:40:32;;;;;;;2.17;1.30;;;;;;;;;;5093657;28;20016;-61
2021/05/07 01:42:57;;;;;;;2.50;1.50;;;;;;;;;;5091998;28;20081;-63
2021/05/07 01:45:34;;;;;;;1.30;1.20;;;;;;;;;;5092539;28;20505;-62
2021/05/07 01:48:00;;;;;;;2.67;1.65;;;;;;;;;;5093550;28;20055;-61
2021/05/07 01:50:27;;;;;;;2.10;1.90;;;;;;;;;;5092218;28;20048;-62
2021/05/07 01:52:56;;;;;;;2.80;1.80;;;;;;;;;;5093763;28;20024;-62
2021/05/07 01:55:24;;;;;;;2.63;2.40;;;;;;;;;;5093661;28;20489;-62
2021/05/07 01:57:49;;;;;;;2.17;1.98;;;;;;;;;;5093670;28;20020;-62
2021/05/07 02:00:19;;;;;;;1.75;1.65;;;;;;;;;;5093924;28;20023;-62
2021/05/07 02:02:47;;;;;;;3.83;1.85;;;;;;;;;;5092288;28;20028;-62
2021/05/07 02:05:31;;;;;;;2.50;2.00;;;;;;;;;;5092439;28;20018;-61
2021/05/07 02:07:57;;;;;;;4.10;2.42;;;;;;;;;;5092380;28;20024;-62
2021/05/07 02:10:24;;;;;;;2.25;1.77;;;;;;;;;;5093289;28;20388;-62
2021/05/07 02:12:51;;;;;;;2.90;2.15;;;;;;;;;;5093781;28;20024;-61
2021/05/07 02:15:17;;;;;;;3.28;2.10;;;;;;;;;;5093574;28;20042;-61
2021/05/07 02:17:47;;;;;;;2.70;2.30;;;;;;;;;;5109512;28;20024;-61
2021/05/07 02:20:14;;;;;;;4.05;2.60;;;;;;;;;;5092232;28;20009;-61
2021/05/07 02:22:43;;;;;;;2.75;2.28;;;;;;;;;;5093815;28;20031;-62
2021/05/07 02:25:09;;;;;;;9.10;3.85;;;;;;;;;;5097357;28;20016;-62
2021/05/07 02:27:34;;;;;;;14.15;5.40;;;;;;;;;;5096016;28;20028;-63
2021/05/07 02:30:00;;;;;;;15.63;5.10;;;;;;;;;;5095940;28;20012;-63
2021/05/07 02:32:26;;;;;;;10.90;4.43;;;;;;;;;;5097209;28;20052;-63
2021/05/07 02:34:52;;;;;;;8.18;4.13;;;;;;;;;;5096140;28;20027;-62
2021/05/07 02:37:17;;;;;;;6.82;3.20;;;;;;;;;;5096085;28;20020;-62
2021/05/07 02:39:43;;;;;;;4.10;2.40;;;;;;;;;;5096894;28;20020;-62
2021/05/07 02:42:09;;;;;;;2.88;2.15;;;;;;;;;;5097120;28;20489;-62
2021/05/07 02:44:35;;;;;;;2.03;1.83;;;;;;;;;;5096953;28;20048;-61
2021/05/07 02:47:04;;;;;;;3.50;1.73;;;;;;;;;;5097236;28;20028;-61
2021/05/07 02:49:30;;;;;;;1.98;1.80;;;;;;;;;;5096011;28;20024;-61
2021/05/07 02:51:56;;;;;;;2.05;1.80;;;;;;;;;;5095965;28;20024;-62
2021/05/07 02:54:21;;;;;;;3.50;1.70;;;;;;;;;;5097039;28;20016;-62
2021/05/07 02:56:47;;;;;;;1.90;1.70;;;;;;;;;;5097160;28;20480;-62
2021/05/07 02:59:15;;;;;;;2.53;1.80;;;;;;;;;;5095735;28;20016;-62
2021/05/07 03:01:40;;;;;;;2.80;1.52;;;;;;;;;;5096731;28;20043;-62
2021/05/07 03:04:06;;;;;;;2.20;1.80;;;;;;;;;;5096977;28;20107;-61
2021/05/07 03:06:31;;;;;;;3.50;1.95;;;;;;;;;;5095351;28;20393;-62
2021/05/07 03:08:57;;;;;;;2.90;2.38;;;;;;;;;;5096818;28;20107;-63
2021/05/07 03:11:22;;;;;;;6.75;3.75;;;;;;;;;;5096546;28;20074;-62
2021/05/07 03:13:47;;;;;;;8.18;3.60;;;;;;;;;;5096530;28;20051;-62
2021/05/07 03:16:13;;;;;;;8.73;3.88;;;;;;;;;;5096895;28;20047;-62
2021/05/07 03:18:39;;;;;;;3.22;2.65;;;;;;;;;;5095550;28;20024;-62
2021/05/07 03:21:04;;;;;;;2.50;1.90;;;;;;;;;;5096449;28;20035;-61
2021/05/07 03:23:30;;;;;;;1.63;1.52;;;;;;;;;;5096467;28;20016;-62
2021/05/07 03:25:55;;;;;;;2.17;1.42;;;;;;;;;;5096442;28;20028;-62
2021/05/07 03:28:21;;;;;;;2.10;1.70;;;;;;;;;;5096529;28;20022;-63
2021/05/07 03:30:47;;;;;;;2.33;1.73;;;;;;;;;;5096272;28;20067;-63
2021/05/07 03:33:12;;;;;;;1.90;1.50;;;;;;;;;;5096199;28;20066;-63
2021/05/07 03:35:38;;;;;;;1.58;1.48;;;;;;;;;;5095621;28;20028;-64
2021/05/07 03:38:04;;;;;;;2.22;1.80;;;;;;;;;;5096392;28;20022;-63
2021/05/07 03:40:29;;;;;;;1.50;1.40;;;;;;;;;;5094979;28;20024;-62
2021/05/07 03:42:55;;;;;;;1.77;1.60;;;;;;;;;;5095748;28;20107;-63
2021/05/07 03:45:21;;;;;;;1.70;1.60;;;;;;;;;;5096179;28;20038;-62
2021/05/07 03:47:46;;;;;;;1.75;1.65;;;;;;;;;;5096424;28;20525;-63
2021/05/07 03:50:12;;;;;;;2.05;1.60;;;;;;;;;;5096031;28;20111;-62
2021/05/07 03:52:38;;;;;;;2.22;2.03;;;;;;;;;;5095735;28;20095;-61
2021/05/07 03:55:05;;;;;;;2.10;1.90;;;;;;;;;;5094510;28;20092;-62
2021/05/07 03:57:30;;;;;;;2.38;2.17;;;;;;;;;;5095844;28;20065;-62
2021/05/07 03:59:56;;;;;;;2.85;2.25;;;;;;;;;;5095950;28;20028;-62
2021/05/07 04:02:23;;;;;;;2.40;2.20;;;;;;;;;;5094841;28;20027;-61
2021/05/07 04:04:49;;;;;;;4.85;2.35;;;;;;;;;;5095770;28;20025;-62
2021/05/07 04:07:15;;;;;;;3.05;2.78;;;;;;;;;;5094415;28;20401;-61
2021/05/07 04:09:47;;;;;;;2.28;2.15;;;;;;;;;;5094460;28;20501;-61
2021/05/07 04:14:41;;;;;;;2.35;2.15;;;;;;;;;;5095451;28;20532;-61
2021/05/07 04:17:07;;;;;;;1.88;1.63;;;;;;;;;;5095510;28;20107;-61
2021/05/07 04:19:32;;;;;;;2.22;1.75;;;;;;;;;;5095571;28;20043;-61
2021/05/07 04:21:58;;;;;;;2.47;1.88;;;;;;;;;;5095472;28;20024;-61
2021/05/07 04:24:24;;;;;;;2.30;2.15;;;;;;;;;;5095192;28;20073;-61
2021/05/07 04:26:50;;;;;;;3.38;2.60;;;;;;;;;;5094161;28;20077;-62
2021/05/07 04:29:15;;;;;;;3.25;2.70;;;;;;;;;;5095399;28;20026;-61
2021/05/07 04:31:41;;;;;;;6.50;3.88;;;;;;;;;;5095129;28;20462;-62
2021/05/07 04:34:06;;;;;;;5.22;3.70;;;;;;;;;;5094221;28;20039;-62
2021/05/07 04:36:33;;;;;;;3.70;3.20;;;;;;;;;;5094968;28;20028;-61
2021/05/07 04:38:58;;;;;;;4.15;3.22;;;;;;;;;;5094928;28;20534;-62
2021/05/07 04:41:24;;;;;;;4.05;3.72;;;;;;;;;;5093859;28;20060;-61
2021/05/07 04:43:50;;;;;;;3.97;3.58;;;;;;;;;;5093379;28;20466;-61
2021/05/07 04:46:16;;;;;;;3.60;3.30;;;;;;;;;;5093228;28;20047;-62
2021/05/07 04:48:41;;;;;;;3.03;2.83;;;;;;;;;;5094866;28;20016;-62
2021/05/07 04:51:07;;;;;;;3.17;2.97;;;;;;;;;;5094677;28;20031;-62
2021/05/07 04:53:32;;;;;;;6.03;4.43;;;;;;;;;;5095058;28;20023;-61
2021/05/07 04:55:58;;;;;;;5.65;4.07;;;;;;;;;;5093342;28;20046;-61
2021/05/07 04:58:23;;;;;;;5.45;3.85;;;;;;;;;;5094349;28;20146;-61
2021/05/07 05:00:48;;;;;;;5.70;4.00;;;;;;;;;;5092987;28;20031;-62
2021/05/07 05:03:14;;;;;;;3.90;3.58;;;;;;;;;;5094492;28;20047;-62
2021/05/07 05:05:39;;;;;;;3.20;2.97;;;;;;;;;;5093381;28;20032;-62
2021/05/07 05:08:05;;;;;;;4.50;3.28;;;;;;;;;;5094701;28;20442;-62
2021/05/07 05:10:31;;;;;;;3.45;3.22;;;;;;;;;;5094299;28;20024;-62
2021/05/07 05:12:56;;;;;;;3.15;2.85;;;;;;;;;;5094404;28;20574;-62
2021/05/07 05:15:22;;;;;;;3.65;3.33;;;;;;;;;;5094217;28;20513;-62
2021/05/07 05:17:49;;;;;;;8.88;5.03;;;;;;;;;;5093456;28;20043;-62
2021/05/07 05:20:14;;;;;;;8.70;5.90;;;;;;;;;;5094361;28;20031;-62
2021/05/07 05:22:40;;;;;;;9.20;6.30;;;;;;;;;;5094276;28;20020;-62
2021/05/07 05:25:06;;;;;;;5.45;2.55;;;;;;;;;;5092697;28;20039;-62
2021/05/07 05:27:34;;;;;;;3.33;2.90;;;;;;;;;;5093909;28;20028;-62
2021/05/07 05:30:00;;;;;;;2.42;2.15;;;;;;;;;;5094047;28;20028;-63
2021/05/07 05:32:26;;;;;;;5.30;2.45;;;;;;;;;;5093702;28;20377;-63
2021/05/07 05:34:51;;;;;;;2.65;2.45;;;;;;;;;;5092534;28;20154;-63
2021/05/07 05:37:17;;;;;;;3.67;2.72;;;;;;;;;;5093516;28;20057;-62
2021/05/07 05:39:43;;;;;;;3.10;2.40;;;;;;;;;;5093722;28;20028;-60
2021/05/07 05:42:08;;;;;;;6.78;3.03;;;;;;;;;;5093648;28;20389;-62
2021/05/07 05:44:34;;;;;;;2.40;2.20;;;;;;;;;;5092161;28;20067;-62
2021/05/07 05:46:59;;;;;;;2.88;2.60;;;;;;;;;;5093518;28;20063;-62
2021/05/07 05:49:25;;;;;;;2.20;2.00;;;;;;;;;;5093584;28;20503;-62
2021/05/07 05:51:50;;;;;;;2.70;2.45;;;;;;;;;;5093556;28;20435;-62
2021/05/07 05:54:16;;;;;;;3.97;2.60;;;;;;;;;;5093640;28;20023;-62
2021/05/07 05:56:42;;;;;;;2.90;2.63;;;;;;;;;;5093247;28;20099;-62
2021/05/07 05:59:08;;;;;;;4.45;2.75;;;;;;;;;;5092718;28;20093;-63
2021/05/07 06:01:33;;;;;;;3.70;1.77;;;;;;;;;;5093441;28;20478;-62
2021/05/07 06:03:58;;;;;;;3.60;2.75;;;;;;;;;;5093312;28;20032;-62
2021/05/07 06:06:24;;;;;;;5.00;2.33;;;;;;;;;;5093216;28;20026;-62
2021/05/07 06:08:49;;;;;;;2.83;2.40;;;;;;;;;;5093320;28;20069;-62
2021/05/07 06:11:15;;;;;;;2.17;1.85;;;;;;;;;;5093089;28;20050;-62
2021/05/07 06:13:40;;;;;;;5.20;3.72;;;;;;;;;;5092130;28;20352;-62
2021/05/07 06:16:06;;;;;;;3.00;2.42;;;;;;;;;;5093239;28;20040;-62
2021/05/07 06:18:31;;;;;;;3.50;2.38;;;;;;;;;;5093198;28;20492;-62
2021/05/07 06:20:57;;;;;;;3.22;2.50;;;;;;;;;;5092877;28;20514;-62
2021/05/07 06:23:22;;;;;;;4.68;2.42;;;;;;;;;;5093381;28;20127;-62
2021/05/07 06:25:48;;;;;;;2.28;2.08;;;;;;;;;;5093150;28;20051;-62
2021/05/07 06:28:14;;;;;;;1.63;1.50;;;;;;;;;;5093153;28;20492;-62
2021/05/07 06:30:39;;;;;;;2.58;2.15;;;;;;;;;;5093045;28;20020;-62
2021/05/07 06:33:05;;;;;;;2.78;2.08;;;;;;;;;;5093015;28;20067;-62
2021/05/07 06:35:30;;;;;;;2.28;2.08;;;;;;;;;;5093070;28;20479;-62
2021/05/07 06:37:57;;;;;;;2.88;2.10;;;;;;;;;;5091876;28;20025;-62
2021/05/07 06:40:22;;;;;;;4.45;2.88;;;;;;;;;;5093167;28;20103;-63
2021/05/07 06:42:48;;;;;;;2.95;2.55;;;;;;;;;;5092987;28;20115;-63
2021/05/07 06:45:14;;;;;;;2.30;2.08;;;;;;;;;;5092821;28;20047;-63
2021/05/07 06:47:40;;;;;;;3.53;2.63;;;;;;;;;;5092936;28;20028;-63
2021/05/07 06:50:06;;;;;;;2.45;2.25;;;;;;;;;;5092912;28;20099;-63
2021/05/07 06:52:32;;;;;;;4.82;2.42;;;;;;;;;;5092855;28;20103;-63
2021/05/07 06:54:58;;;;;;;2.88;2.15;;;;;;;;;;5092927;28;20013;-62
2021/05/07 06:57:23;;;;;;;3.78;2.63;;;;;;;;;;5092868;28;20028;-63
2021/05/07 06:59:49;;;;;;;1.85;1.73;;;;;;;;;;5091575;28;20012;-63
2021/05/07 07:02:15;;;;;;;2.88;1.55;;;;;;;;;;5092947;28;20114;-63
2021/05/07 07:04:40;;;;;;;3.38;1.70;;;;;;;;;;5092869;28;20028;-63
2021/05/07 07:07:06;;;;;;;2.67;1.85;;;;;;;;;;5092711;28;20039;-62
2021/05/07 07:09:31;;;;;;;2.05;1.88;;;;;;;;;;5094482;28;20020;-63
2021/05/07 07:11:57;;;;;;;3.08;2.00;;;;;;;;;;5096351;28;20020;-62
2021/05/07 07:14:22;;;;;;;3.83;2.75;;;;;;;;;;5096722;28;20020;-63
2021/05/07 07:16:47;;;;;;;4.15;2.55;;;;;;;;;;5096251;28;20055;-63
2021/05/07 07:19:13;;;;;;;2.92;1.90;;;;;;;;;;5096478;28;20036;-63
2021/05/07 07:21:38;;;;;;;1.80;1.38;;;;;;;;;;5096398;28;20112;-63
2021/05/07 07:24:04;;;;;;;1.83;1.73;;;;;;;;;;5096257;28;20355;-62
2021/05/07 07:26:30;;;;;;;1.90;1.80;;;;;;;;;;5096207;28;20032;-63
2021/05/07 07:28:55;;;;;;;1.90;1.58;;;;;;;;;;5096127;28;20092;-63
2021/05/07 07:31:21;;;;;;;1.77;1.42;;;;;;;;;;5094908;28;20428;-63
2021/05/07 07:33:47;;;;;;;1.60;1.38;;;;;;;;;;5096164;28;20027;-63
2021/05/07 07:36:12;;;;;;;1.98;1.73;;;;;;;;;;5096180;28;20213;-62
2021/05/07 07:38:38;;;;;;;1.30;1.20;;;;;;;;;;5096010;28;20016;-62
2021/05/07 07:41:03;;;;;;;2.03;1.75;;;;;;;;;;5096015;28;20529;-62
2021/05/07 07:43:29;;;;;;;1.40;1.30;;;;;;;;;;5095502;28;20077;-63
2021/05/07 07:45:54;;;;;;;1.48;1.38;;;;;;;;;;5096066;28;20051;-63
2021/05/07 07:48:20;;;;;;;3.13;1.63;;;;;;;;;;5095998;28;20028;-63
2021/05/07 07:50:45;;;;;;;1.98;1.67;;;;;;;;;;5094532;28;20027;-63
2021/05/07 07:53:11;;;;;;;2.10;1.33;;;;;;;;;;5095759;28;20020;-63
2021/05/07 07:55:36;;;;;;;3.05;1.88;;;;;;;;;;5095705;28;20056;-63
2021/05/07 07:58:02;;;;;;;1.40;1.27;;;;;;;;;;5095715;28;20375;-62
2021/05/07 08:00:28;;;;;;;2.00;1.27;;;;;;;;;;5095643;28;20028;-62
2021/05/07 08:02:54;;;;;;;1.90;1.67;;;;;;;;;;5095417;28;20027;-62
2021/05/07 08:05:19;;;;;;;2.22;1.98;;;;;;;;;;5095513;28;20027;-62
2021/05/07 08:07:48;;;;;;;2.20;1.60;;;;;;;;;;5095523;28;20423;-62
2021/05/07 08:10:15;;;;;;;1.50;1.40;;;;;;;;;;5095165;28;20441;-62
2021/05/07 08:12:42;;;;;;;1.40;1.30;;;;;;;;;;5094192;28;20081;-62
2021/05/07 08:15:07;;;;;;;2.05;1.38;;;;;;;;;;5094159;28;20423;-62
2021/05/07 08:17:33;;;;;;;3.25;1.83;;;;;;;;;;5077119;28;20055;-62
2021/05/07 08:19:58;;;;;;;2.85;1.70;;;;;;;;;;5094854;28;20016;-62
2021/05/07 08:22:24;;;;;;;1.15;0.80;;;;;;;;;;5094588;28;20016;-62
2021/05/07 08:24:49;;;;;;;1.67;1.52;;;;;;;;;;5095138;28;20488;-62
2021/05/07 08:27:15;;;;;;;1.30;1.02;;;;;;;;;;5095093;28;20016;-62
2021/05/07 08:29:40;;;;;;;1.73;1.30;;;;;;;;;;5095095;28;20024;-62
2021/05/07 08:32:06;;;;;;;1.40;1.30;;;;;;;;;;5094962;28;20470;-62
2021/05/07 08:34:31;;;;;;;2.08;1.55;;;;;;;;;;5093761;28;20051;-62
2021/05/07 08:36:57;;;;;;;1.42;1.33;;;;;;;;;;5095015;28;20012;-62
2021/05/07 08:39:22;;;;;;;2.30;1.30;;;;;;;;;;5094975;28;20497;-62
2021/05/07 08:41:48;;;;;;;3.00;1.52;;;;;;;;;;5094807;28;20491;-62
2021/05/07 08:44:14;;;;;;;1.50;1.40;;;;;;;;;;5094396;28;20407;-62
2021/05/07 08:46:41;;;;;;;2.10;1.35;;;;;;;;;;5094821;28;20043;-62
2021/05/07 08:49:07;;;;;;;1.52;1.05;;;;;;;;;;5094696;28;20035;-62
2021/05/07 08:51:33;;;;;;;1.75;1.20;;;;;;;;;;5094556;28;20115;-62
2021/05/07 08:53:58;;;;;;;0.55;0.55;;;;;;;;;;5094512;28;20050;-62
2021/05/07 08:56:24;;;;;;;1.20;1.10;;;;;;;;;;5094401;28;20031;-62
2021/05/07 08:58:49;;;;;;;1.63;1.38;;;;;;;;;;5094716;28;20016;-62
2021/05/07 09:01:15;;;;;;;1.10;1.05;;;;;;;;;;5094520;28;20054;-62
2021/05/07 09:03:46;;;;;;;1.40;1.30;;;;;;;;;;5094336;28;20019;-62
2021/05/07 09:06:19;;;;;;;1.25;1.15;;;;;;;;;;5094406;28;20035;-62
2021/05/07 09:08:47;;;;;;;1.50;1.35;;;;;;;;;;5092941;28;20098;-62
2021/05/07 09:11:13;;;;;;;0.60;0.60;;;;;;;;;;5092836;28;20020;-62
2021/05/07 09:13:39;;;;;;;1.10;1.00;;;;;;;;;;5094192;28;20482;-62
2021/05/07 09:16:05;;;;;;;1.40;1.30;;;;;;;;;;5094053;28;20012;-62
2021/05/07 09:18:50;;;;;;;1.00;1.00;;;;;;;;;;5092855;28;20024;-62
2021/05/07 09:21:16;;;;;;;0.80;0.80;;;;;;;;;;5094257;28;20084;-62
2021/05/07 09:23:42;;;;;;;1.23;0.90;;;;;;;;;;5094064;28;20055;-62
2021/05/07 09:26:08;;;;;;;1.45;0.60;;;;;;;;;;5093975;28;20028;-62
2021/05/07 09:28:33;;;;;;;1.10;1.00;;;;;;;;;;5093879;28;20058;-62
2021/05/07 09:31:12;;;;;;;1.60;1.38;;;;;;;;;;5093779;28;20028;-63
2021/05/07 09:33:41;;;;;;;1.45;0.90;;;;;;;;;;5093595;28;20080;-63
2021/05/07 09:36:06;;;;;;;0.65;0.65;;;;;;;;;;5093816;28;20020;-62
2021/05/07 09:38:32;;;;;;;1.20;1.05;;;;;;;;;;5093719;28;20031;-63
2021/05/07 09:40:58;;;;;;;1.10;0.90;;;;;;;;;;5093646;28;20519;-63
2021/05/07 09:43:25;;;;;;;1.00;1.00;;;;;;;;;;5093232;28;20056;-64
2021/05/07 09:45:54;;;;;;;1.33;1.23;;;;;;;;;;5075790;28;20044;-63
2021/05/07 09:48:19;;;;;;;1.65;1.10;;;;;;;;;;5093550;28;20016;-63
2021/05/07 09:50:45;;;;;;;1.30;1.20;;;;;;;;;;5093472;28;20500;-64
2021/05/07 09:53:12;;;;;;;1.85;0.90;;;;;;;;;;5092292;28;20040;-64
2021/05/07 09:55:38;;;;;;;0.40;0.40;;;;;;;;;;5093507;28;20401;-63
2021/05/07 09:58:05;;;;;;;1.42;1.23;;;;;;;;;;5093042;28;20073;-64
2021/05/07 10:00:30;;;;;;;0.50;0.50;;;;;;;;;;5093553;28;20028;-64
2021/05/07 10:02:56;;;;;;;1.05;0.95;;;;;;;;;;5093336;28;20358;-64
2021/05/07 10:05:23;;;;;;;0.95;0.95;;;;;;;;;;5093295;28;20027;-64
2021/05/07 10:07:49;;;;;;;2.47;1.20;;;;;;;;;;5093417;28;20401;-64
2021/05/07 10:10:14;;;;;;;2.95;1.25;;;;;;;;;;5093305;28;20024;-64
2021/05/07 10:12:43;;;;;;;1.65;1.55;;;;;;;;;;5093212;28;20024;-64
2021/05/07 10:15:09;;;;;;;1.10;0.95;;;;;;;;;;5093408;28;20093;-64
2021/05/07 10:17:35;;;;;;;2.58;1.50;;;;;;;;;;5093329;28;20466;-64
2021/05/07 10:20:01;;;;;;;3.60;1.50;;;;;;;;;;5092075;28;20040;-64
2021/05/07 10:22:40;;;;;;;0.90;0.90;;;;;;;;;;5091989;28;20066;-64
2021/05/07 10:25:13;;;;;;;2.20;1.00;;;;;;;;;;5093282;28;20032;-64
2021/05/07 10:27:49;;;;;;;2.55;1.00;;;;;;;;;;5093140;28;20470;-64
2021/05/07 10:30:22;;;;;;;1.52;1.00;;;;;;;;;;5093349;28;20511;-64
2021/05/07 10:32:55;;;;;;;0.93;0.88;;;;;;;;;;5093064;28;20470;-64
2021/05/07 10:35:28;;;;;;;1.30;1.20;;;;;;;;;;5091808;28;20367;-64
2021/05/07 10:37:54;;;;;;;1.77;1.08;;;;;;;;;;5092988;28;20401;-64
2021/05/07 10:40:25;;;;;;;0.93;0.82;;;;;;;;;;5093103;28;20024;-64
2021/05/07 10:42:57;;;;;;;1.77;1.00;;;;;;;;;;5091534;28;20390;-64
2021/05/07 10:45:38;;;;;;;2.20;1.40;;;;;;;;;;5095169;28;20545;-64
2021/05/07 10:48:16;;;;;;;2.50;1.65;;;;;;;;;;5095913;28;20036;-64
2021/05/07 10:50:42;;;;;;;1.50;1.25;;;;;;;;;;5096990;28;20036;-64
2021/05/07 10:53:08;;;;;;;5.90;2.75;;;;;;;;;;5096624;28;20023;-65
2021/05/07 10:55:34;;;;;;;3.33;2.95;;;;;;;;;;5097163;28;20043;-64
2021/05/07 10:58:01;;;;;;;1.52;1.42;;;;;;;;;;5096945;28;20099;-64
2021/05/07 11:00:39;;;;;;;2.13;1.77;;;;;;;;;;5096922;28;20540;-64
2021/05/07 11:03:04;;;;;;;2.40;2.00;;;;;;;;;;5096869;28;20492;-64
2021/05/07 11:05:40;;;;;;;2.80;2.60;;;;;;;;;;5095494;28;20044;-64
2021/05/07 11:08:06;;;;;;;2.10;1.90;;;;;;;;;;5096615;28;20501;-64
2021/05/07 11:10:33;;;;;;;2.22;1.77;;;;;;;;;;5096490;28;20016;-64
2021/05/07 11:12:58;;;;;;;1.75;1.60;;;;;;;;;;5096596;28;20036;-64
2021/05/07 11:15:24;;;;;;;1.90;1.80;;;;;;;;;;5096461;28;20377;-64
2021/05/07 11:17:59;;;;;;;3.38;2.60;;;;;;;;;;5096438;28;20024;-64
2021/05/07 11:20:45;;;;;;;4.10;3.10;;;;;;;;;;5095223;28;20031;-64
2021/05/07 11:23:12;;;;;;;9.57;3.42;;;;;;;;;;5096431;28;20074;-64
2021/05/07 11:25:38;;;;;;;3.53;3.00;;;;;;;;;;5096149;28;20419;-64
2021/05/07 11:28:11;;;;;;;4.38;3.15;;;;;;;;;;5096244;28;20035;-64
2021/05/07 11:30:56;;;;;;;4.20;3.00;;;;;;;;;;5096054;28;20032;-64
2021/05/07 11:33:22;;;;;;;3.17;2.55;;;;;;;;;;5096205;28;20470;-64
2021/05/07 11:36:01;;;;;;;3.47;2.78;;;;;;;;;;5096223;28;20420;-64
2021/05/07 11:38:27;;;;;;;8.93;3.35;;;;;;;;;;5096134;28;20056;-64
2021/05/07 11:40:52;;;;;;;5.43;3.60;;;;;;;;;;5095998;28;20375;-64
2021/05/07 11:43:18;;;;;;;6.55;3.72;;;;;;;;;;5095732;28;20048;-64
2021/05/07 11:45:43;;;;;;;6.55;4.00;;;;;;;;;;5096271;28;20058;-64
2021/05/07 11:48:10;;;;;;;6.50;4.28;;;;;;;;;;5095393;28;20024;-64
2021/05/07 11:50:36;;;;;;;8.60;4.35;;;;;;;;;;5094897;28;20474;-64
2021/05/07 11:53:02;;;;;;;22.63;11.57;;;;;;;;;;5095723;28;20058;-64
2021/05/07 11:55:31;;;;;;;18.02;10.07;;;;;;;;;;5094320;28;20028;-64
2021/05/07 11:57:56;;;;;;;7.28;4.57;;;;;;;;;;5095751;28;20461;-64
2021/05/07 12:00:22;;;;;;;7.03;4.13;;;;;;;;;;5095710;28;20027;-64
2021/05/07 12:02:56;;;;;;;7.95;4.65;;;;;;;;;;5094409;28;20020;-64
2021/05/07 12:05:29;;;;;;;5.70;4.35;;;;;;;;;;5095676;28;20028;-64
2021/05/07 12:07:54;;;;;;;10.07;5.63;;;;;;;;;;5094248;28;20044;-64
2021/05/07 12:10:24;;;;;;;6.80;4.43;;;;;;;;;;5095569;28;20427;-64
2021/05/07 12:12:53;;;;;;;5.50;3.90;;;;;;;;;;5094256;28;20063;-64
2021/05/07 12:15:19;;;;;;;10.18;5.60;;;;;;;;;;5095470;28;20020;-65
2021/05/07 12:17:46;;;;;;;5.72;3.50;;;;;;;;;;5095352;28;20111;-65
2021/05/07 12:20:12;;;;;;;7.60;4.80;;;;;;;;;;5095244;28;20073;-65
2021/05/07 12:22:38;;;;;;;6.95;4.65;;;;;;;;;;5095322;28;20059;-65
2021/05/07 12:25:08;;;;;;;6.07;4.97;;;;;;;;;;5095161;28;20049;-65
2021/05/07 12:27:33;;;;;;;5.43;4.05;;;;;;;;;;5095128;28;20559;-65
2021/05/07 12:29:59;;;;;;;2.85;2.65;;;;;;;;;;5095068;28;20024;-65
2021/05/07 12:32:24;;;;;;;5.68;2.58;;;;;;;;;;5095062;28;20029;-66
2021/05/07 12:34:53;;;;;;;3.97;2.33;;;;;;;;;;5093689;28;20009;-65
2021/05/07 12:37:19;;;;;;;4.28;2.10;;;;;;;;;;5094895;28;20389;-65
2021/05/07 12:39:46;;;;;;;4.05;2.20;;;;;;;;;;5093829;28;20119;-65
2021/05/07 12:42:12;;;;;;;2.38;2.17;;;;;;;;;;5094543;28;20107;-65
2021/05/07 12:44:37;;;;;;;3.50;2.40;;;;;;;;;;5094543;28;20462;-65
2021/05/07 12:47:04;;;;;;;2.08;1.98;;;;;;;;;;5094736;28;20040;-65
2021/05/07 12:49:30;;;;;;;2.35;2.10;;;;;;;;;;5094672;28;20032;-65
2021/05/07 12:51:59;;;;;;;3.22;1.83;;;;;;;;;;5094520;28;20031;-65
2021/05/07 12:54:24;;;;;;;2.10;2.00;;;;;;;;;;5094688;28;20012;-65
2021/05/07 12:56:51;;;;;;;1.60;1.50;;;;;;;;;;5094634;28;20607;-65
2021/05/07 12:59:17;;;;;;;1.67;1.58;;;;;;;;;;5094594;28;20373;-65
2021/05/07 13:01:42;;;;;;;1.60;1.50;;;;;;;;;;5094485;28;20032;-65
2021/05/07 13:04:08;;;;;;;1.83;1.73;;;;;;;;;;5093265;28;20028;-65
2021/05/07 13:06:33;;;;;;;1.65;1.40;;;;;;;;;;5092775;28;20042;-65
2021/05/07 13:08:59;;;;;;;1.92;1.83;;;;;;;;;;5093148;28;20018;-65
2021/05/07 13:11:24;;;;;;;2.22;1.40;;;;;;;;;;5094122;28;20032;-65
2021/05/07 13:13:50;;;;;;;1.77;1.67;;;;;;;;;;5094286;28;20409;-66
2021/05/07 13:16:15;;;;;;;1.60;1.48;;;;;;;;;;5092922;28;20020;-66
2021/05/07 13:18:41;;;;;;;1.48;1.33;;;;;;;;;;5094062;28;20373;-66
2021/05/07 13:21:06;;;;;;;1.60;1.50;;;;;;;;;;5094144;28;20032;-66
2021/05/07 13:23:32;;;;;;;2.25;1.55;;;;;;;;;;5094209;28;20020;-66
2021/05/07 13:25:57;;;;;;;1.70;1.55;;;;;;;;;;5093987;28;20020;-65
2021/05/07 13:28:23;;;;;;;2.00;1.80;;;;;;;;;;5092737;28;20058;-66
2021/05/07 13:30:48;;;;;;;2.65;1.92;;;;;;;;;;5092679;28;20447;-65
2021/05/07 13:33:14;;;;;;;1.90;1.80;;;;;;;;;;5092667;28;20023;-65
2021/05/07 13:35:43;;;;;;;2.03;1.83;;;;;;;;;;5093645;28;20027;-66
2021/05/07 13:38:09;;;;;;;2.22;2.03;;;;;;;;;;5094068;28;20028;-66
2021/05/07 13:40:35;;;;;;;2.17;2.00;;;;;;;;;;5093698;28;20371;-66
2021/05/07 13:43:02;;;;;;;1.92;1.83;;;;;;;;;;5093258;28;20035;-66
2021/05/07 13:45:27;;;;;;;1.83;1.73;;;;;;;;;;5093803;28;20032;-66
2021/05/07 13:47:53;;;;;;;1.90;1.65;;;;;;;;;;5093556;28;20038;-66
2021/05/07 13:50:19;;;;;;;1.90;1.80;;;;;;;;;;5092550;28;20036;-65
2021/05/07 13:52:45;;;;;;;3.28;2.17;;;;;;;;;;5093640;28;20034;-66
2021/05/07 13:55:11;;;;;;;2.30;2.03;;;;;;;;;;5093526;28;20073;-65
2021/05/07 13:57:36;;;;;;;3.70;2.67;;;;;;;;;;5093368;28;20026;-65
2021/05/07 14:00:03;;;;;;;2.47;2.28;;;;;;;;;;5093667;28;20028;-65
2021/05/07 14:02:30;;;;;;;2.38;2.17;;;;;;;;;;5093545;28;20054;-65
2021/05/07 14:04:55;;;;;;;2.22;2.03;;;;;;;;;;5093455;28;20424;-65
2021/05/07 14:07:22;;;;;;;6.78;3.25;;;;;;;;;;5093462;28;20052;-65
2021/05/07 14:09:48;;;;;;;2.28;2.00;;;;;;;;;;5093282;28;20363;-65
2021/05/07 14:12:13;;;;;;;3.15;2.85;;;;;;;;;;5093295;28;20157;-65
2021/05/07 14:14:39;;;;;;;4.68;3.65;;;;;;;;;;5093419;28;20054;-65
2021/05/07 14:17:04;;;;;;;2.00;1.88;;;;;;;;;;5093420;28;20381;-65
2021/05/07 14:19:30;;;;;;;2.88;2.67;;;;;;;;;;5092434;28;20478;-66
2021/05/07 14:21:55;;;;;;;4.00;3.53;;;;;;;;;;5093271;28;20382;-66
2021/05/07 14:24:20;;;;;;;2.95;2.75;;;;;;;;;;5093175;28;20035;-66
2021/05/07 14:26:46;;;;;;;2.97;2.63;;;;;;;;;;5093064;28;20015;-66
2021/05/07 14:29:12;;;;;;;3.30;2.72;;;;;;;;;;5093255;28;20031;-66
2021/05/07 14:31:37;;;;;;;3.30;2.90;;;;;;;;;;5093013;28;20048;-66
2021/05/07 14:34:03;;;;;;;4.35;3.78;;;;;;;;;;5075159;28;20075;-66
2021/05/07 14:36:28;;;;;;;3.97;3.58;;;;;;;;;;5093148;28;20038;-66
2021/05/07 14:38:54;;;;;;;7.32;4.82;;;;;;;;;;5093067;28;20020;-66
2021/05/07 14:41:20;;;;;;;5.38;4.47;;;;;;;;;;5091885;28;20478;-66